sensor_id;sensor_type;location;lat;lon;timestamp;P1;durP1;ratioP1;P2;durP2;ratioP2
55328;SDS011;41205;44.264;19.884;2023-07-24T00:00:46;25.65;;;23.30;;
55328;SDS011;41205;44.264;19.884;2023-07-24T00:03:12;25.02;;;22.40;;
55328;SDS011;41205;44.264;19.884;2023-07-24T00:05:38;24.50;;;22.05;;
55328;SDS011;41205;44.264;19.884;2023-07-24T00:08:03;25.30;;;22.92;;
55328;SDS011;41205;44.264;19.884;2023-07-24T00:10:29;25.48;;;22.73;;
55328;SDS011;41205;44.264;19.884;2023-07-24T00:12:55;26.58;;;22.23;;
55328;SDS011;41205;44.264;19.884;2023-07-24T00:15:21;25.40;;;22.70;;
55328;SDS011;41205;44.264;19.884;2023-07-24T00:17:46;25.25;;;22.77;;
55328;SDS011;41205;44.264;19.884;2023-07-24T00:20:12;25.25;;;22.55;;
55328;SDS011;41205;44.264;19.884;2023-07-24T00:22:38;24.85;;;22.20;;
55328;SDS011;41205;44.264;19.884;2023-07-24T00:25:03;28.38;;;25.13;;
55328;SDS011;41205;44.264;19.884;2023-07-24T00:27:31;25.88;;;23.25;;
55328;SDS011;41205;44.264;19.884;2023-07-24T00:29:57;26.75;;;23.85;;
55328;SDS011;41205;44.264;19.884;2023-07-24T00:32:23;25.25;;;22.73;;
55328;SDS011;41205;44.264;19.884;2023-07-24T00:34:49;24.33;;;21.90;;
55328;SDS011;41205;44.264;19.884;2023-07-24T00:37:15;25.58;;;23.00;;
55328;SDS011;41205;44.264;19.884;2023-07-24T00:39:41;26.13;;;23.35;;
55328;SDS011;41205;44.264;19.884;2023-07-24T00:42:07;28.25;;;25.58;;
55328;SDS011;41205;44.264;19.884;2023-07-24T00:44:33;30.02;;;26.98;;
55328;SDS011;41205;44.264;19.884;2023-07-24T00:46:59;27.25;;;24.35;;
55328;SDS011;41205;44.264;19.884;2023-07-24T00:49:25;27.45;;;24.50;;
55328;SDS011;41205;44.264;19.884;2023-07-24T00:51:51;28.63;;;25.52;;
55328;SDS011;41205;44.264;19.884;2023-07-24T00:54:17;29.63;;;26.00;;
55328;SDS011;41205;44.264;19.884;2023-07-24T00:56:44;29.63;;;26.70;;
55328;SDS011;41205;44.264;19.884;2023-07-24T00:59:10;28.63;;;25.27;;
55328;SDS011;41205;44.264;19.884;2023-07-24T01:01:37;29.52;;;26.27;;
55328;SDS011;41205;44.264;19.884;2023-07-24T01:04:05;30.77;;;25.33;;
55328;SDS011;41205;44.264;19.884;2023-07-24T01:06:32;29.63;;;24.13;;
55328;SDS011;41205;44.264;19.884;2023-07-24T01:08:58;28.73;;;25.75;;
55328;SDS011;41205;44.264;19.884;2023-07-24T01:11:24;25.58;;;22.88;;
55328;SDS011;41205;44.264;19.884;2023-07-24T01:13:58;25.80;;;23.30;;
55328;SDS011;41205;44.264;19.884;2023-07-24T01:16:33;25.92;;;23.17;;
55328;SDS011;41205;44.264;19.884;2023-07-24T01:19:09;26.65;;;23.48;;
55328;SDS011;41205;44.264;19.884;2023-07-24T01:22:03;26.63;;;23.65;;
55328;SDS011;41205;44.264;19.884;2023-07-24T01:24:47;25.77;;;23.20;;
55328;SDS011;41205;44.264;19.884;2023-07-24T01:27:20;26.65;;;22.63;;
55328;SDS011;41205;44.264;19.884;2023-07-24T01:29:49;24.85;;;22.00;;
55328;SDS011;41205;44.264;19.884;2023-07-24T01:32:15;24.15;;;21.65;;
55328;SDS011;41205;44.264;19.884;2023-07-24T01:34:41;26.63;;;23.75;;
55328;SDS011;41205;44.264;19.884;2023-07-24T01:37:07;26.73;;;23.88;;
55328;SDS011;41205;44.264;19.884;2023-07-24T01:39:33;27.58;;;21.75;;
55328;SDS011;41205;44.264;19.884;2023-07-24T01:42:00;24.65;;;22.05;;
55328;SDS011;41205;44.264;19.884;2023-07-24T01:44:26;24.52;;;21.90;;
55328;SDS011;41205;44.264;19.884;2023-07-24T01:46:52;25.00;;;22.02;;
55328;SDS011;41205;44.264;19.884;2023-07-24T01:49:18;24.83;;;22.17;;
55328;SDS011;41205;44.264;19.884;2023-07-24T01:51:43;24.35;;;20.38;;
55328;SDS011;41205;44.264;19.884;2023-07-24T01:54:09;24.63;;;21.95;;
55328;SDS011;41205;44.264;19.884;2023-07-24T01:56:35;24.35;;;20.88;;
55328;SDS011;41205;44.264;19.884;2023-07-24T01:59:02;24.30;;;21.80;;
55328;SDS011;41205;44.264;19.884;2023-07-24T02:01:28;21.85;;;19.38;;
55328;SDS011;41205;44.264;19.884;2023-07-24T02:03:53;21.33;;;19.13;;
55328;SDS011;41205;44.264;19.884;2023-07-24T02:06:19;22.10;;;19.70;;
55328;SDS011;41205;44.264;19.884;2023-07-24T02:08:45;24.02;;;19.63;;
55328;SDS011;41205;44.264;19.884;2023-07-24T02:11:14;21.05;;;18.80;;
55328;SDS011;41205;44.264;19.884;2023-07-24T02:13:43;24.77;;;20.77;;
55328;SDS011;41205;44.264;19.884;2023-07-24T02:16:09;26.70;;;20.17;;
55328;SDS011;41205;44.264;19.884;2023-07-24T02:18:36;22.02;;;19.50;;
55328;SDS011;41205;44.264;19.884;2023-07-24T02:21:02;23.92;;;19.77;;
55328;SDS011;41205;44.264;19.884;2023-07-24T02:23:27;22.02;;;17.27;;
55328;SDS011;41205;44.264;19.884;2023-07-24T02:25:53;20.73;;;18.17;;
55328;SDS011;41205;44.264;19.884;2023-07-24T02:28:19;21.65;;;18.13;;
55328;SDS011;41205;44.264;19.884;2023-07-24T02:30:46;22.23;;;17.75;;
55328;SDS011;41205;44.264;19.884;2023-07-24T02:33:12;22.63;;;17.25;;
55328;SDS011;41205;44.264;19.884;2023-07-24T02:35:38;20.42;;;18.20;;
55328;SDS011;41205;44.264;19.884;2023-07-24T02:38:05;23.65;;;18.35;;
55328;SDS011;41205;44.264;19.884;2023-07-24T02:40:30;19.92;;;17.63;;
55328;SDS011;41205;44.264;19.884;2023-07-24T02:42:56;19.75;;;17.50;;
55328;SDS011;41205;44.264;19.884;2023-07-24T02:45:22;21.92;;;17.20;;
55328;SDS011;41205;44.264;19.884;2023-07-24T02:47:48;21.10;;;18.35;;
55328;SDS011;41205;44.264;19.884;2023-07-24T02:50:13;20.38;;;18.27;;
55328;SDS011;41205;44.264;19.884;2023-07-24T02:52:39;21.95;;;18.52;;
55328;SDS011;41205;44.264;19.884;2023-07-24T02:55:05;23.17;;;17.88;;
55328;SDS011;41205;44.264;19.884;2023-07-24T02:57:31;25.83;;;17.30;;
55328;SDS011;41205;44.264;19.884;2023-07-24T02:59:56;24.40;;;17.65;;
55328;SDS011;41205;44.264;19.884;2023-07-24T03:02:22;21.15;;;16.27;;
55328;SDS011;41205;44.264;19.884;2023-07-24T03:04:48;20.10;;;15.80;;
55328;SDS011;41205;44.264;19.884;2023-07-24T03:07:13;23.38;;;15.55;;
55328;SDS011;41205;44.264;19.884;2023-07-24T03:09:39;18.95;;;14.38;;
55328;SDS011;41205;44.264;19.884;2023-07-24T03:12:05;22.75;;;14.48;;
55328;SDS011;41205;44.264;19.884;2023-07-24T03:14:31;18.00;;;13.90;;
55328;SDS011;41205;44.264;19.884;2023-07-24T03:16:57;19.30;;;13.70;;
55328;SDS011;41205;44.264;19.884;2023-07-24T03:19:22;22.85;;;13.63;;
55328;SDS011;41205;44.264;19.884;2023-07-24T03:21:48;18.10;;;13.70;;
55328;SDS011;41205;44.264;19.884;2023-07-24T03:24:14;16.35;;;13.20;;
55328;SDS011;41205;44.264;19.884;2023-07-24T03:26:39;16.45;;;12.55;;
55328;SDS011;41205;44.264;19.884;2023-07-24T03:29:05;19.88;;;13.65;;
55328;SDS011;41205;44.264;19.884;2023-07-24T03:31:31;20.83;;;13.30;;
55328;SDS011;41205;44.264;19.884;2023-07-24T03:33:56;17.15;;;13.27;;
55328;SDS011;41205;44.264;19.884;2023-07-24T03:36:22;20.55;;;12.73;;
55328;SDS011;41205;44.264;19.884;2023-07-24T03:38:47;19.60;;;13.35;;
55328;SDS011;41205;44.264;19.884;2023-07-24T03:41:13;16.70;;;12.55;;
55328;SDS011;41205;44.264;19.884;2023-07-24T03:43:39;16.80;;;12.77;;
55328;SDS011;41205;44.264;19.884;2023-07-24T03:46:05;17.23;;;12.43;;
55328;SDS011;41205;44.264;19.884;2023-07-24T03:48:30;17.40;;;12.50;;
55328;SDS011;41205;44.264;19.884;2023-07-24T03:50:59;22.70;;;12.85;;
55328;SDS011;41205;44.264;19.884;2023-07-24T03:53:26;18.42;;;13.05;;
55328;SDS011;41205;44.264;19.884;2023-07-24T03:55:52;17.38;;;12.63;;
55328;SDS011;41205;44.264;19.884;2023-07-24T03:58:18;16.45;;;12.88;;
55328;SDS011;41205;44.264;19.884;2023-07-24T04:00:44;18.80;;;12.70;;
55328;SDS011;41205;44.264;19.884;2023-07-24T04:03:10;16.40;;;13.23;;
55328;SDS011;41205;44.264;19.884;2023-07-24T04:05:35;18.80;;;13.23;;
55328;SDS011;41205;44.264;19.884;2023-07-24T04:08:01;18.63;;;13.07;;
55328;SDS011;41205;44.264;19.884;2023-07-24T04:10:27;18.92;;;12.93;;
55328;SDS011;41205;44.264;19.884;2023-07-24T04:12:54;15.85;;;12.45;;
55328;SDS011;41205;44.264;19.884;2023-07-24T04:15:19;17.52;;;13.00;;
55328;SDS011;41205;44.264;19.884;2023-07-24T04:17:45;17.08;;;12.50;;
55328;SDS011;41205;44.264;19.884;2023-07-24T04:20:11;18.85;;;13.50;;
55328;SDS011;41205;44.264;19.884;2023-07-24T04:22:37;18.50;;;14.57;;
55328;SDS011;41205;44.264;19.884;2023-07-24T04:25:02;18.08;;;14.55;;
55328;SDS011;41205;44.264;19.884;2023-07-24T04:27:28;17.33;;;12.85;;
55328;SDS011;41205;44.264;19.884;2023-07-24T04:29:54;20.92;;;14.45;;
55328;SDS011;41205;44.264;19.884;2023-07-24T04:32:20;19.15;;;13.68;;
55328;SDS011;41205;44.264;19.884;2023-07-24T04:34:45;19.67;;;14.43;;
55328;SDS011;41205;44.264;19.884;2023-07-24T04:37:11;20.02;;;14.27;;
55328;SDS011;41205;44.264;19.884;2023-07-24T04:39:40;18.08;;;13.85;;
55328;SDS011;41205;44.264;19.884;2023-07-24T04:42:05;20.42;;;14.25;;
55328;SDS011;41205;44.264;19.884;2023-07-24T04:44:31;19.65;;;12.88;;
55328;SDS011;41205;44.264;19.884;2023-07-24T04:46:57;21.52;;;14.85;;
55328;SDS011;41205;44.264;19.884;2023-07-24T04:49:24;20.85;;;14.98;;
55328;SDS011;41205;44.264;19.884;2023-07-24T04:51:50;15.05;;;13.45;;
55328;SDS011;41205;44.264;19.884;2023-07-24T04:54:16;17.67;;;14.10;;
55328;SDS011;41205;44.264;19.884;2023-07-24T04:56:42;18.75;;;13.32;;
55328;SDS011;41205;44.264;19.884;2023-07-24T04:59:08;17.27;;;13.40;;
55328;SDS011;41205;44.264;19.884;2023-07-24T05:01:34;20.65;;;13.13;;
55328;SDS011;41205;44.264;19.884;2023-07-24T05:03:59;15.93;;;14.23;;
55328;SDS011;41205;44.264;19.884;2023-07-24T05:06:25;20.02;;;14.10;;
55328;SDS011;41205;44.264;19.884;2023-07-24T05:08:54;16.23;;;12.48;;
55328;SDS011;41205;44.264;19.884;2023-07-24T05:11:20;19.67;;;14.10;;
55328;SDS011;41205;44.264;19.884;2023-07-24T05:13:46;17.38;;;14.70;;
55328;SDS011;41205;44.264;19.884;2023-07-24T05:16:11;17.45;;;14.32;;
55328;SDS011;41205;44.264;19.884;2023-07-24T05:18:37;20.45;;;14.63;;
55328;SDS011;41205;44.264;19.884;2023-07-24T05:21:03;16.27;;;14.55;;
55328;SDS011;41205;44.264;19.884;2023-07-24T05:23:28;15.68;;;13.88;;
55328;SDS011;41205;44.264;19.884;2023-07-24T05:26:01;16.90;;;14.88;;
55328;SDS011;41205;44.264;19.884;2023-07-24T05:28:28;19.35;;;13.48;;
55328;SDS011;41205;44.264;19.884;2023-07-24T05:30:55;17.27;;;13.55;;
55328;SDS011;41205;44.264;19.884;2023-07-24T05:33:21;19.00;;;13.90;;
55328;SDS011;41205;44.264;19.884;2023-07-24T05:35:48;16.17;;;14.63;;
55328;SDS011;41205;44.264;19.884;2023-07-24T05:38:14;15.77;;;13.82;;
55328;SDS011;41205;44.264;19.884;2023-07-24T05:40:40;16.67;;;14.98;;
55328;SDS011;41205;44.264;19.884;2023-07-24T05:43:05;15.95;;;14.05;;
55328;SDS011;41205;44.264;19.884;2023-07-24T05:45:31;17.10;;;14.77;;
55328;SDS011;41205;44.264;19.884;2023-07-24T05:47:57;15.88;;;14.02;;
55328;SDS011;41205;44.264;19.884;2023-07-24T05:50:23;17.80;;;15.43;;
55328;SDS011;41205;44.264;19.884;2023-07-24T05:52:48;15.98;;;14.45;;
55328;SDS011;41205;44.264;19.884;2023-07-24T05:55:14;15.85;;;14.18;;
55328;SDS011;41205;44.264;19.884;2023-07-24T05:57:40;16.10;;;14.57;;
55328;SDS011;41205;44.264;19.884;2023-07-24T06:00:06;16.88;;;15.18;;
55328;SDS011;41205;44.264;19.884;2023-07-24T06:02:32;18.45;;;16.65;;
55328;SDS011;41205;44.264;19.884;2023-07-24T06:04:58;18.70;;;16.75;;
55328;SDS011;41205;44.264;19.884;2023-07-24T06:07:23;17.33;;;15.60;;
55328;SDS011;41205;44.264;19.884;2023-07-24T06:09:49;19.85;;;17.65;;
55328;SDS011;41205;44.264;19.884;2023-07-24T06:12:15;17.63;;;16.02;;
55328;SDS011;41205;44.264;19.884;2023-07-24T06:14:41;18.92;;;17.05;;
55328;SDS011;41205;44.264;19.884;2023-07-24T06:17:06;18.88;;;17.17;;
55328;SDS011;41205;44.264;19.884;2023-07-24T06:19:32;19.77;;;17.05;;
55328;SDS011;41205;44.264;19.884;2023-07-24T06:21:58;19.10;;;17.25;;
55328;SDS011;41205;44.264;19.884;2023-07-24T06:24:23;20.70;;;18.60;;
55328;SDS011;41205;44.264;19.884;2023-07-24T06:26:49;19.58;;;17.52;;
55328;SDS011;41205;44.264;19.884;2023-07-24T06:29:15;19.83;;;18.08;;
55328;SDS011;41205;44.264;19.884;2023-07-24T06:31:41;19.65;;;18.02;;
55328;SDS011;41205;44.264;19.884;2023-07-24T06:34:07;18.98;;;17.17;;
55328;SDS011;41205;44.264;19.884;2023-07-24T06:36:33;20.95;;;18.88;;
55328;SDS011;41205;44.264;19.884;2023-07-24T06:38:58;21.40;;;19.30;;
55328;SDS011;41205;44.264;19.884;2023-07-24T06:41:24;20.45;;;18.42;;
55328;SDS011;41205;44.264;19.884;2023-07-24T06:43:50;20.65;;;18.65;;
55328;SDS011;41205;44.264;19.884;2023-07-24T06:46:16;20.35;;;18.38;;
55328;SDS011;41205;44.264;19.884;2023-07-24T06:48:42;21.05;;;19.23;;
55328;SDS011;41205;44.264;19.884;2023-07-24T06:51:07;22.83;;;20.85;;
55328;SDS011;41205;44.264;19.884;2023-07-24T06:53:33;22.25;;;20.10;;
55328;SDS011;41205;44.264;19.884;2023-07-24T06:55:59;21.38;;;19.73;;
55328;SDS011;41205;44.264;19.884;2023-07-24T06:58:25;23.48;;;21.42;;
55328;SDS011;41205;44.264;19.884;2023-07-24T07:00:50;22.58;;;20.70;;
55328;SDS011;41205;44.264;19.884;2023-07-24T07:03:16;23.52;;;21.38;;
55328;SDS011;41205;44.264;19.884;2023-07-24T07:05:42;23.70;;;21.65;;
55328;SDS011;41205;44.264;19.884;2023-07-24T07:08:07;24.33;;;22.17;;
55328;SDS011;41205;44.264;19.884;2023-07-24T07:10:33;24.30;;;22.17;;
55328;SDS011;41205;44.264;19.884;2023-07-24T07:12:59;25.17;;;22.95;;
55328;SDS011;41205;44.264;19.884;2023-07-24T07:15:24;24.90;;;22.48;;
55328;SDS011;41205;44.264;19.884;2023-07-24T07:17:50;24.80;;;22.40;;
55328;SDS011;41205;44.264;19.884;2023-07-24T07:20:16;26.63;;;24.33;;
55328;SDS011;41205;44.264;19.884;2023-07-24T07:22:41;25.15;;;22.90;;
55328;SDS011;41205;44.264;19.884;2023-07-24T07:25:07;26.05;;;24.05;;
55328;SDS011;41205;44.264;19.884;2023-07-24T07:27:33;26.23;;;23.75;;
55328;SDS011;41205;44.264;19.884;2023-07-24T07:29:59;26.80;;;24.60;;
55328;SDS011;41205;44.264;19.884;2023-07-24T07:32:24;25.75;;;23.40;;
55328;SDS011;41205;44.264;19.884;2023-07-24T07:34:52;28.58;;;26.17;;
55328;SDS011;41205;44.264;19.884;2023-07-24T07:37:17;26.67;;;24.40;;
55328;SDS011;41205;44.264;19.884;2023-07-24T07:39:43;26.73;;;24.73;;
55328;SDS011;41205;44.264;19.884;2023-07-24T07:42:09;25.73;;;23.50;;
55328;SDS011;41205;44.264;19.884;2023-07-24T07:44:34;26.50;;;24.45;;
55328;SDS011;41205;44.264;19.884;2023-07-24T07:47:00;27.88;;;25.30;;
55328;SDS011;41205;44.264;19.884;2023-07-24T07:49:26;28.17;;;25.50;;
55328;SDS011;41205;44.264;19.884;2023-07-24T07:51:52;27.92;;;25.52;;
55328;SDS011;41205;44.264;19.884;2023-07-24T07:54:17;26.50;;;24.35;;
55328;SDS011;41205;44.264;19.884;2023-07-24T07:56:43;27.52;;;25.08;;
55328;SDS011;41205;44.264;19.884;2023-07-24T07:59:09;27.08;;;25.08;;
55328;SDS011;41205;44.264;19.884;2023-07-24T08:01:36;26.15;;;24.15;;
55328;SDS011;41205;44.264;19.884;2023-07-24T08:04:04;25.70;;;23.75;;
55328;SDS011;41205;44.264;19.884;2023-07-24T08:06:30;26.85;;;24.88;;
55328;SDS011;41205;44.264;19.884;2023-07-24T08:08:56;27.55;;;25.45;;
55328;SDS011;41205;44.264;19.884;2023-07-24T08:11:21;26.77;;;24.77;;
55328;SDS011;41205;44.264;19.884;2023-07-24T08:13:47;27.38;;;24.98;;
55328;SDS011;41205;44.264;19.884;2023-07-24T08:16:13;25.83;;;23.83;;
55328;SDS011;41205;44.264;19.884;2023-07-24T08:18:46;28.02;;;25.50;;
55328;SDS011;41205;44.264;19.884;2023-07-24T08:21:13;27.67;;;25.58;;
55328;SDS011;41205;44.264;19.884;2023-07-24T08:23:39;26.60;;;24.45;;
55328;SDS011;41205;44.264;19.884;2023-07-24T08:26:05;27.30;;;24.52;;
55328;SDS011;41205;44.264;19.884;2023-07-24T08:28:32;26.35;;;23.83;;
55328;SDS011;41205;44.264;19.884;2023-07-24T08:30:59;23.02;;;20.92;;
55328;SDS011;41205;44.264;19.884;2023-07-24T08:33:27;22.20;;;20.08;;
55328;SDS011;41205;44.264;19.884;2023-07-24T08:36:14;21.42;;;19.33;;
55328;SDS011;41205;44.264;19.884;2023-07-24T08:38:39;20.40;;;18.15;;
55328;SDS011;41205;44.264;19.884;2023-07-24T08:41:10;21.20;;;18.90;;
55328;SDS011;41205;44.264;19.884;2023-07-24T08:43:38;20.25;;;18.15;;
55328;SDS011;41205;44.264;19.884;2023-07-24T08:46:05;20.73;;;18.50;;
55328;SDS011;41205;44.264;19.884;2023-07-24T08:48:32;21.33;;;19.02;;
55328;SDS011;41205;44.264;19.884;2023-07-24T08:51:04;18.77;;;16.40;;
55328;SDS011;41205;44.264;19.884;2023-07-24T08:53:32;19.58;;;17.58;;
55328;SDS011;41205;44.264;19.884;2023-07-24T08:56:00;20.38;;;17.65;;
55328;SDS011;41205;44.264;19.884;2023-07-24T08:58:32;18.73;;;16.60;;
55328;SDS011;41205;44.264;19.884;2023-07-24T09:00:58;20.20;;;16.67;;
55328;SDS011;41205;44.264;19.884;2023-07-24T09:03:25;19.60;;;17.50;;
55328;SDS011;41205;44.264;19.884;2023-07-24T09:05:51;17.70;;;15.93;;
55328;SDS011;41205;44.264;19.884;2023-07-24T09:08:27;19.80;;;15.95;;
55328;SDS011;41205;44.264;19.884;2023-07-24T09:11:00;19.33;;;17.30;;
55328;SDS011;41205;44.264;19.884;2023-07-24T09:13:27;18.92;;;17.02;;
55328;SDS011;41205;44.264;19.884;2023-07-24T09:15:53;18.92;;;16.83;;
55328;SDS011;41205;44.264;19.884;2023-07-24T09:18:20;19.73;;;16.65;;
55328;SDS011;41205;44.264;19.884;2023-07-24T09:20:46;23.40;;;16.25;;
55328;SDS011;41205;44.264;19.884;2023-07-24T09:23:12;20.08;;;17.63;;
55328;SDS011;41205;44.264;19.884;2023-07-24T09:25:39;19.48;;;17.10;;
55328;SDS011;41205;44.264;19.884;2023-07-24T09:30:39;19.23;;;16.65;;
55328;SDS011;41205;44.264;19.884;2023-07-24T09:33:06;21.40;;;18.08;;
55328;SDS011;41205;44.264;19.884;2023-07-24T09:35:33;16.75;;;14.95;;
55328;SDS011;41205;44.264;19.884;2023-07-24T09:38:05;17.92;;;16.00;;
55328;SDS011;41205;44.264;19.884;2023-07-24T09:40:43;19.25;;;15.50;;
55328;SDS011;41205;44.264;19.884;2023-07-24T09:43:17;18.35;;;15.80;;
55328;SDS011;41205;44.264;19.884;2023-07-24T09:45:47;18.70;;;15.88;;
55328;SDS011;41205;44.264;19.884;2023-07-24T09:48:14;17.70;;;15.68;;
55328;SDS011;41205;44.264;19.884;2023-07-24T09:50:41;18.88;;;14.93;;
55328;SDS011;41205;44.264;19.884;2023-07-24T09:53:20;17.27;;;14.65;;
55328;SDS011;41205;44.264;19.884;2023-07-24T09:55:52;16.80;;;15.05;;
55328;SDS011;41205;44.264;19.884;2023-07-24T10:00:46;18.58;;;14.35;;
55328;SDS011;41205;44.264;19.884;2023-07-24T10:03:13;15.07;;;13.55;;
55328;SDS011;41205;44.264;19.884;2023-07-24T10:05:40;22.10;;;14.32;;
55328;SDS011;41205;44.264;19.884;2023-07-24T10:08:08;20.40;;;15.07;;
55328;SDS011;41205;44.264;19.884;2023-07-24T10:10:35;16.55;;;14.85;;
55328;SDS011;41205;44.264;19.884;2023-07-24T10:13:01;15.07;;;13.52;;
55328;SDS011;41205;44.264;19.884;2023-07-24T10:15:27;18.17;;;14.65;;
55328;SDS011;41205;44.264;19.884;2023-07-24T10:18:01;15.65;;;13.82;;
55328;SDS011;41205;44.264;19.884;2023-07-24T10:20:32;18.65;;;14.38;;
55328;SDS011;41205;44.264;19.884;2023-07-24T10:23:03;17.52;;;14.20;;
55328;SDS011;41205;44.264;19.884;2023-07-24T10:25:30;18.17;;;14.07;;
55328;SDS011;41205;44.264;19.884;2023-07-24T10:28:04;18.40;;;14.25;;
55328;SDS011;41205;44.264;19.884;2023-07-24T10:30:33;14.95;;;13.35;;
55328;SDS011;41205;44.264;19.884;2023-07-24T10:33:04;17.73;;;13.63;;
55328;SDS011;41205;44.264;19.884;2023-07-24T10:35:40;16.40;;;14.68;;
55328;SDS011;41205;44.264;19.884;2023-07-24T10:38:13;16.90;;;13.30;;
55328;SDS011;41205;44.264;19.884;2023-07-24T10:40:41;18.38;;;14.48;;
55328;SDS011;41205;44.264;19.884;2023-07-24T10:43:09;16.33;;;14.63;;
55328;SDS011;41205;44.264;19.884;2023-07-24T10:45:42;17.55;;;13.77;;
55328;SDS011;41205;44.264;19.884;2023-07-24T10:48:13;18.83;;;14.07;;
55328;SDS011;41205;44.264;19.884;2023-07-24T10:50:43;18.95;;;15.20;;
55328;SDS011;41205;44.264;19.884;2023-07-24T10:53:16;17.95;;;13.80;;
55328;SDS011;41205;44.264;19.884;2023-07-24T10:55:44;17.27;;;13.48;;
55328;SDS011;41205;44.264;19.884;2023-07-24T10:58:11;21.80;;;14.75;;
55328;SDS011;41205;44.264;19.884;2023-07-24T11:00:43;16.58;;;14.00;;
55328;SDS011;41205;44.264;19.884;2023-07-24T11:03:10;18.55;;;13.82;;
55328;SDS011;41205;44.264;19.884;2023-07-24T11:05:40;14.77;;;12.77;;
55328;SDS011;41205;44.264;19.884;2023-07-24T11:08:17;17.20;;;13.90;;
55328;SDS011;41205;44.264;19.884;2023-07-24T11:10:51;15.55;;;13.80;;
55328;SDS011;41205;44.264;19.884;2023-07-24T11:13:19;18.23;;;15.30;;
55328;SDS011;41205;44.264;19.884;2023-07-24T11:15:54;18.35;;;13.35;;
55328;SDS011;41205;44.264;19.884;2023-07-24T11:18:20;15.55;;;13.85;;
55328;SDS011;41205;44.264;19.884;2023-07-24T11:20:48;15.23;;;13.63;;
55328;SDS011;41205;44.264;19.884;2023-07-24T11:23:14;17.35;;;13.23;;
55328;SDS011;41205;44.264;19.884;2023-07-24T11:25:40;15.98;;;14.25;;
55328;SDS011;41205;44.264;19.884;2023-07-24T11:28:06;16.08;;;14.05;;
55328;SDS011;41205;44.264;19.884;2023-07-24T11:30:33;16.48;;;12.73;;
55328;SDS011;41205;44.264;19.884;2023-07-24T11:33:00;20.02;;;13.50;;
55328;SDS011;41205;44.264;19.884;2023-07-24T11:35:28;17.58;;;13.70;;
55328;SDS011;41205;44.264;19.884;2023-07-24T11:37:54;19.55;;;14.00;;
55328;SDS011;41205;44.264;19.884;2023-07-24T11:40:20;14.93;;;12.55;;
55328;SDS011;41205;44.264;19.884;2023-07-24T11:42:46;16.85;;;13.75;;
55328;SDS011;41205;44.264;19.884;2023-07-24T11:45:13;15.85;;;13.05;;
55328;SDS011;41205;44.264;19.884;2023-07-24T11:47:46;20.33;;;14.13;;
55328;SDS011;41205;44.264;19.884;2023-07-24T11:50:13;15.45;;;13.48;;
55328;SDS011;41205;44.264;19.884;2023-07-24T11:55:18;15.32;;;13.80;;
55328;SDS011;41205;44.264;19.884;2023-07-24T11:57:55;17.52;;;14.13;;
55328;SDS011;41205;44.264;19.884;2023-07-24T12:00:22;16.67;;;14.30;;
55328;SDS011;41205;44.264;19.884;2023-07-24T12:02:49;14.88;;;13.38;;
55328;SDS011;41205;44.264;19.884;2023-07-24T12:05:15;14.85;;;13.00;;
55328;SDS011;41205;44.264;19.884;2023-07-24T12:07:42;16.70;;;14.05;;
55328;SDS011;41205;44.264;19.884;2023-07-24T12:10:09;19.58;;;13.95;;
55328;SDS011;41205;44.264;19.884;2023-07-24T12:12:45;17.83;;;14.80;;
55328;SDS011;41205;44.264;19.884;2023-07-24T12:15:12;17.63;;;13.68;;
55328;SDS011;41205;44.264;19.884;2023-07-24T12:17:38;18.50;;;14.38;;
55328;SDS011;41205;44.264;19.884;2023-07-24T12:20:05;19.50;;;14.27;;
55328;SDS011;41205;44.264;19.884;2023-07-24T12:22:33;19.70;;;13.95;;
55328;SDS011;41205;44.264;19.884;2023-07-24T12:25:00;17.98;;;14.57;;
55328;SDS011;41205;44.264;19.884;2023-07-24T12:27:26;23.92;;;14.95;;
55328;SDS011;41205;44.264;19.884;2023-07-24T12:29:52;16.35;;;14.65;;
55328;SDS011;41205;44.264;19.884;2023-07-24T12:32:17;19.17;;;14.30;;
55328;SDS011;41205;44.264;19.884;2023-07-24T12:34:44;17.67;;;14.20;;
55328;SDS011;41205;44.264;19.884;2023-07-24T12:37:12;17.92;;;14.45;;
55328;SDS011;41205;44.264;19.884;2023-07-24T12:39:37;19.90;;;15.07;;
55328;SDS011;41205;44.264;19.884;2023-07-24T12:42:04;16.92;;;15.02;;
55328;SDS011;41205;44.264;19.884;2023-07-24T12:44:30;19.33;;;14.45;;
55328;SDS011;41205;44.264;19.884;2023-07-24T12:46:56;16.20;;;14.52;;
55328;SDS011;41205;44.264;19.884;2023-07-24T12:49:21;17.30;;;15.05;;
55328;SDS011;41205;44.264;19.884;2023-07-24T12:51:47;17.35;;;13.50;;
55328;SDS011;41205;44.264;19.884;2023-07-24T12:54:13;21.95;;;13.98;;
55328;SDS011;41205;44.264;19.884;2023-07-24T12:56:39;18.00;;;14.35;;
55328;SDS011;41205;44.264;19.884;2023-07-24T12:59:05;17.25;;;14.00;;
55328;SDS011;41205;44.264;19.884;2023-07-24T13:01:31;18.88;;;14.02;;
55328;SDS011;41205;44.264;19.884;2023-07-24T13:03:56;18.58;;;14.23;;
55328;SDS011;41205;44.264;19.884;2023-07-24T13:06:22;16.58;;;13.68;;
55328;SDS011;41205;44.264;19.884;2023-07-24T13:08:49;17.27;;;13.77;;
55328;SDS011;41205;44.264;19.884;2023-07-24T13:11:15;20.25;;;15.05;;
55328;SDS011;41205;44.264;19.884;2023-07-24T13:13:40;18.92;;;14.88;;
55328;SDS011;41205;44.264;19.884;2023-07-24T13:16:06;20.38;;;14.18;;
55328;SDS011;41205;44.264;19.884;2023-07-24T13:18:32;18.17;;;14.93;;
55328;SDS011;41205;44.264;19.884;2023-07-24T13:20:58;16.60;;;14.07;;
55328;SDS011;41205;44.264;19.884;2023-07-24T13:23:24;19.60;;;14.07;;
55328;SDS011;41205;44.264;19.884;2023-07-24T13:25:51;19.83;;;14.57;;
55328;SDS011;41205;44.264;19.884;2023-07-24T13:28:18;20.85;;;14.85;;
55328;SDS011;41205;44.264;19.884;2023-07-24T13:30:44;18.17;;;14.60;;
55328;SDS011;41205;44.264;19.884;2023-07-24T13:33:10;16.92;;;14.40;;
55328;SDS011;41205;44.264;19.884;2023-07-24T13:35:37;24.98;;;14.55;;
55328;SDS011;41205;44.264;19.884;2023-07-24T13:38:02;21.88;;;15.15;;
55328;SDS011;41205;44.264;19.884;2023-07-24T13:40:28;19.45;;;12.48;;
55328;SDS011;41205;44.264;19.884;2023-07-24T13:42:54;17.92;;;14.27;;
55328;SDS011;41205;44.264;19.884;2023-07-24T13:45:20;21.02;;;14.43;;
55328;SDS011;41205;44.264;19.884;2023-07-24T13:47:45;19.73;;;14.45;;
55328;SDS011;41205;44.264;19.884;2023-07-24T13:50:11;16.23;;;13.30;;
55328;SDS011;41205;44.264;19.884;2023-07-24T13:52:36;15.50;;;13.38;;
55328;SDS011;41205;44.264;19.884;2023-07-24T13:55:03;18.02;;;14.95;;
55328;SDS011;41205;44.264;19.884;2023-07-24T13:57:29;20.05;;;15.38;;
55328;SDS011;41205;44.264;19.884;2023-07-24T13:59:55;19.27;;;14.10;;
55328;SDS011;41205;44.264;19.884;2023-07-24T14:02:20;18.23;;;13.60;;
55328;SDS011;41205;44.264;19.884;2023-07-24T14:04:46;18.67;;;14.63;;
55328;SDS011;41205;44.264;19.884;2023-07-24T14:07:12;15.85;;;14.23;;
55328;SDS011;41205;44.264;19.884;2023-07-24T14:09:38;23.63;;;14.98;;
55328;SDS011;41205;44.264;19.884;2023-07-24T14:12:04;17.08;;;15.27;;
55328;SDS011;41205;44.264;19.884;2023-07-24T14:14:30;22.00;;;14.43;;